Impacts METAR Board INFO
IDs:

KDFW - Dallas-Ft Worth Intl, TX, US

Updated at: 0436 UTC 22 Jan 2018
Potential Impact None Slight Moderate High
Time21/16Z 21/17Z 21/18Z 21/19Z 21/20Z 21/21Z 21/22Z 21/23Z 22/00Z 22/01Z 22/02Z 22/03Z 22/04Z
VIS10 10 10 10 10 10 10 4 10 10 9 9 7
CIG18 25 43 32 75 38 39 33 75 -- -- 49 --
CoverBKNOVCOVCOVCBKNBKNOVCOVCBKNFEWSCTBKNSCT
FltCatMVFRMVFRVFRVFRVFRVFRVFRMVFRVFRVFRVFRVFRVFR
WX-------RA----VCTS+TSRA BR----------
WDir180190190210200200180190190190190260270
WSpd20 20 21 19 19 20 17 23 17 15 13 16 11
WGst26 30 29 25 -- -- 28 28 -- -- -- 23 --
Raw hourly METARs
KDFW 211553Z 18020G26KT 10SM BKN018 BKN045 BKN250 21/16 A2987 RMK AO2 PK WND 19028/1541 SLP109 T02110161
KDFW 211653Z 19020G30KT 10SM BKN025 OVC033 22/16 A2986 RMK AO2 PK WND 20030/1649 SLP106 T02220161
KDFW 211753Z 19021G29KT 10SM FEW025 BKN043 OVC055 23/16 A2984 RMK AO2 PK WND 18035/1726 SLP097 T02330161 10233 20178 58011
KDFW 211853Z 21019G25KT 10SM -RA BKN032 OVC044 23/16 A2980 RMK AO2 PK WND 21034/1801 RAB50 SLP086 P0000 T02280161
KDFW 211953Z 20019KT 10SM FEW032 SCT044 BKN075 BKN250 23/16 A2976 RMK AO2 PK WND 21030/1904 LTG DSNT SE RAE00 SLP072 P0000 T02330156
KDFW 212053Z 20020KT 10SM BKN038 BKN100 24/16 A2972 RMK AO2 PK WND 20027/2050 LTG DSNT E SLP058 CB DSNT E MOV NE 60000 T02440156 58038
KDFW 212153Z COR 18017G28KT 10SM VCTS SCT028 BKN039 OVC240 23/17 A2970 RMK AO2 PK WND 19029/2107 LTG DSNT SW-N SLP050 OCNL LTGCG DSNT SW LN SHRA DSNT SW-NW-N MOV NE T02280167
KDFW 212253Z COR 19023G28KT 4SM +TSRA BR SCT021 BKN033 OVC085CB 17/15 A2972 RMK AO2 PK WND 25036/2236 WSHFT 2228 LTG DSNT NE AND SW RAB35 TSB34 SLP060 VIS NE-E 1 OCNL LTGICCG OHD NE-SE TS OHD NE-SE MOV NE
KDFW 212353Z COR 19017KT 10SM FEW028 FEW040 BKN075 BKN240 21/17 A2972 RMK AO2 PK WND 20029/2301 LTG DSNT NE RAE33 TSE22 SLP059 TS MOVD NE P0007 60056 T02060172 10250 20167 56000
KDFW 220053Z 19015KT 10SM FEW110 20/17 A2972 RMK AO2 SLP058 T02000172
KDFW 220153Z 19013KT 9SM FEW065 SCT100 19/17 A2974 RMK AO2 SLP065 T01940172
KDFW 220253Z 26016G23KT 9SM BKN049 BKN070 20/12 A2979 RMK AO2 WSHFT 0212 LTG DSNT NE RAB35E48 SLP080 P0000 60000 T02000117 53021
KDFW 220353Z 27011KT 7SM SCT034 18/M05 A2980 RMK AO2 LTG DSNT SE SLP087 T01781050